全部
Port Hedland/Wodgina Airport YWGA 天氣
There is no TAF data available at YWGA. Showing TAF data for YIBO (23 mi SE).
IBM終端機場天氣預報(YWGA無資料)
| Date | Time (AWST) | Flight Rules | Wind Dir. | Speed | Type | Height AGL (ft) | Visibility | Remarks | ||||||
|---|---|---|---|---|---|---|---|---|---|---|---|---|---|---|
There is no METAR data available at YWGA. Showing METAR data for YIBO (23 mi SE).
IBM近期METAR歷史資料(YWGA無資料)
| Date | Time (AWST) | Flight Rules | Wind Dir. | Speed | Type | Height AGL (ft) | Visibility | Temp (°C) | Temp (°F) | Dew Point (°C) | Dew Point (°F) | Rel. Humid. | Pressure | Density Altitude | Remarks |
|---|---|---|---|---|---|---|---|---|---|---|---|---|---|---|---|
| 06-五月 | 01:00 | VFR | 160° | 6 kt | 10000 meters | 17° | 62° | -1° | 30° | 29% | 1017 mb | 785 ft | |||
| 06-五月 | 00:00 | VFR | 150° | 6 kt | 10000 meters | 18° | 64° | -1° | 30° | 28% | 1017 mb | 905 ft | |||
| 05-五月 | 23:00 | VFR | 160° | 4 kt | 10000 meters | 18° | 64° | -1° | 30° | 28% | 1017 mb | 905 ft | |||
| 05-五月 | 22:00 | VFR | 160° | 5 kt | 10000 meters | 19° | 66° | -1° | 30° | 26% | 1017 mb | 1,025 ft | |||
| 05-五月 | 21:00 | VFR | 150° | 4 kt | 10000 meters | 20° | 68° | -3° | 26° | 21% | 1018 mb | 1,115 ft | |||
| 05-五月 | 20:00 | VFR | 160° | 7 kt | 10000 meters | 21° | 69° | -3° | 26° | 20% | 1017 mb | 1,265 ft | |||
| 05-五月 | 19:00 | VFR | 140° | 7 kt | 10000 meters | 24° | 75° | -4° | 24° | 15% | 1016 mb | 1,655 ft | |||
| 05-五月 | 18:00 | VFR | 140° | 9 kt | 10000 meters | 26° | 78° | -4° | 24° | 14% | 1016 mb | 1,895 ft | |||
| 05-五月 | 17:00 | VFR | 120° | 11 kt | 10000 meters | 28° | 82° | -5° | 23° | 11% | 1015 mb | 2,164 ft | |||
| 05-五月 | 16:00 | VFR | 140° | 9 kt | 10000 meters | 29° | 84° | -6° | 21° | 10% | 1015 mb | 2,284 ft | |||
| 05-五月 | 15:00 | VFR | 140° | 11 kt | 10000 meters | 29° | 84° | -6° | 21° | 10% | 1015 mb | 2,284 ft | |||
| 05-五月 | 14:00 | VFR | 90° | 5 kt | 10000 meters | 28° | 82° | -4° | 24° | 12% | 1016 mb | 2,135 ft | |||
| 05-五月 | 13:00 | VFR | 160° | 11 kt | 10000 meters | 28° | 82° | -3° | 26° | 13% | 1016 mb | 2,135 ft | |||
| 05-五月 | 12:00 | VFR | 130° | 7 kt | 10000 meters | 27° | 80° | -2° | 28° | 15% | 1017 mb | 1,985 ft | |||
| 05-五月 | 11:00 | VFR | 90° | 10 kt | 10000 meters | 25° | 77° | -1° | 30° | 18% | 1019 mb | 1,686 ft | |||
| 05-五月 | 10:00 | VFR | 120° | 13 kt | 10000 meters | 24° | 75° | -1° | 30° | 19% | 1019 mb | 1,566 ft | |||
| 05-五月 | 09:00 | VFR | 120° | 11 kt | 10000 meters | 23° | 73° | 0° | 32° | 22% | 1020 mb | 1,416 ft | |||
| 05-五月 | 08:00 | VFR | 130° | 11 kt | 10000 meters | 21° | 69° | 0° | 32° | 25% | 1019 mb | 1,206 ft | |||
| 05-五月 | 07:00 | VFR | 170° | 7 kt | 10000 meters | 17° | 62° | -1° | 30° | 29% | 1018 mb | 755 ft | |||
| 05-五月 | 06:00 | VFR | 170° | 5 kt | 10000 meters | 17° | 62° | -1° | 30° | 29% | 1018 mb | 755 ft | |||
| 05-五月 | 05:00 | VFR | 140° | 11 kt | 10000 meters | 20° | 68° | -1° | 30° | 24% | 1017 mb | 1,145 ft | |||
| 05-五月 | 04:00 | VFR | 130° | 14 kt | 10000 meters | 21° | 69° | -1° | 30° | 23% | 1017 mb | 1,265 ft | |||
| 05-五月 | 03:00 | VFR | 120° | 13 kt | 10000 meters | 22° | 71° | -1° | 30° | 21% | 1017 mb | 1,385 ft | |||
| 05-五月 | 02:00 | VFR | 110° | 12 kt | 10000 meters | 22° | 71° | -1° | 30° | 21% | 1017 mb | 1,385 ft |
登入
| 您的瀏覽器不支援. 升級您的瀏覽器 |
